createdAt,value
2023-04-04T00:00:41.864Z,3.50
2023-04-04T00:03:11.189Z,3.60
2023-04-04T00:05:38.160Z,3.53
2023-04-04T00:08:12.053Z,3.40
2023-04-04T00:10:41.656Z,3.50
2023-04-04T00:13:09.270Z,3.60
2023-04-04T00:15:36.614Z,3.47
2023-04-04T00:18:06.574Z,3.57
2023-04-04T00:20:38.544Z,3.90
2023-04-04T00:23:06.713Z,3.30
2023-04-04T00:25:35.944Z,3.50
2023-04-04T00:28:03.227Z,4.07
2023-04-04T00:30:30.291Z,3.20
2023-04-04T00:32:58.236Z,3.07
2023-04-04T00:35:28.040Z,3.60
2023-04-04T00:37:54.975Z,3.70
2023-04-04T00:40:22.623Z,3.47
2023-04-04T00:42:51.947Z,3.43
2023-04-04T00:45:18.818Z,3.57
2023-04-04T00:47:47.958Z,3.90
2023-04-04T00:50:14.778Z,3.90
2023-04-04T00:52:41.576Z,3.70
2023-04-04T00:55:08.602Z,2.60
2023-04-04T00:57:35.446Z,3.07
2023-04-04T01:00:05.049Z,3.27
2023-04-04T01:02:33.950Z,3.30
2023-04-04T01:05:00.780Z,3.93
2023-04-04T01:07:28.041Z,3.43
2023-04-04T01:09:58.924Z,3.27
2023-04-04T01:12:25.792Z,3.30
2023-04-04T01:14:52.582Z,3.50
2023-04-04T01:17:21.897Z,3.43
2023-04-04T01:20:07.498Z,3.53
2023-04-04T01:22:37.133Z,3.03
2023-04-04T01:25:04.638Z,3.03
2023-04-04T01:27:31.536Z,3.57
2023-04-04T01:29:58.420Z,3.13
2023-04-04T01:32:50.561Z,3.20
2023-04-04T01:35:23.368Z,4.57
2023-04-04T01:38:08.364Z,3.27
2023-04-04T01:40:35.578Z,3.60
2023-04-04T01:43:02.502Z,3.43
2023-04-04T01:45:29.909Z,3.30
2023-04-04T01:47:59.397Z,2.97
2023-04-04T01:50:27.161Z,3.87
2023-04-04T01:52:54.177Z,3.63
2023-04-04T01:55:21.927Z,3.63
2023-04-04T01:57:51.452Z,3.50
2023-04-04T02:00:18.444Z,3.97
2023-04-04T02:02:45.552Z,3.53
2023-04-04T02:05:12.558Z,3.17
2023-04-04T02:07:39.376Z,3.53
2023-04-04T02:10:09.053Z,3.40
2023-04-04T02:12:35.812Z,3.23
2023-04-04T02:15:02.739Z,3.53
2023-04-04T02:17:29.610Z,3.50
2023-04-04T02:19:56.392Z,3.70
2023-04-04T02:22:23.305Z,3.60
2023-04-04T02:24:53.794Z,4.10
2023-04-04T02:27:20.579Z,3.07
2023-04-04T02:29:47.520Z,3.63
2023-04-04T02:32:16.675Z,4.20
2023-04-04T02:34:43.429Z,3.27
2023-04-04T02:37:15.603Z,3.60
2023-04-04T02:39:43.371Z,4.03
2023-04-04T02:42:10.373Z,3.50
2023-04-04T02:44:37.178Z,3.57
2023-04-04T02:47:04.077Z,3.80
2023-04-04T02:49:31.817Z,3.67
2023-04-04T02:52:01.316Z,3.80
2023-04-04T02:54:28.115Z,4.13
2023-04-04T02:56:59.664Z,3.70
2023-04-04T02:59:29.000Z,3.63
2023-04-04T03:01:56.105Z,4.03
2023-04-04T03:04:23.039Z,3.73
2023-04-04T03:06:49.840Z,3.70
2023-04-04T03:09:19.093Z,3.87
2023-04-04T03:11:48.158Z,3.90
2023-04-04T03:14:17.346Z,3.40
2023-04-04T03:16:52.380Z,3.97
2023-04-04T03:19:22.259Z,3.90
2023-04-04T03:21:49.080Z,3.67
2023-04-04T03:24:15.836Z,3.77
2023-04-04T03:26:42.597Z,3.73
2023-04-04T03:29:09.377Z,3.60
2023-04-04T03:31:36.417Z,3.80
2023-04-04T03:34:05.645Z,3.70
2023-04-04T03:36:32.414Z,4.00
2023-04-04T03:39:01.352Z,3.43
2023-04-04T03:41:28.268Z,3.37
2023-04-04T03:43:55.444Z,3.37
2023-04-04T03:46:22.272Z,3.60
2023-04-04T03:48:51.372Z,3.40
2023-04-04T03:51:25.146Z,3.70
2023-04-04T03:53:54.527Z,3.20
2023-04-04T03:56:21.388Z,3.37
2023-04-04T03:58:48.568Z,3.50
2023-04-04T04:01:15.345Z,3.23
2023-04-04T04:03:42.197Z,4.07
2023-04-04T04:06:09.050Z,3.63
2023-04-04T04:08:35.876Z,3.60
2023-04-04T04:11:06.461Z,3.53
2023-04-04T04:13:38.887Z,3.40
2023-04-04T04:16:06.126Z,3.63
2023-04-04T04:18:33.620Z,4.17
2023-04-04T04:21:02.513Z,3.70
2023-04-04T04:23:29.803Z,4.13
2023-04-04T04:25:58.800Z,3.80
2023-04-04T04:28:34.000Z,3.60
2023-04-04T04:31:10.614Z,4.10
2023-04-04T04:33:37.481Z,4.10
2023-04-04T04:36:04.891Z,4.07
2023-04-04T04:38:34.306Z,4.00
2023-04-04T04:41:01.499Z,4.10
2023-04-04T04:43:30.521Z,4.33
2023-04-04T04:45:57.394Z,5.17
2023-04-04T04:48:24.175Z,6.83
2023-04-04T04:50:51.311Z,5.40
2023-04-04T04:53:18.197Z,3.80
2023-04-04T04:55:46.637Z,4.37
2023-04-04T04:58:13.944Z,4.30
2023-04-04T05:00:44.088Z,4.20
2023-04-04T05:03:10.998Z,3.97
2023-04-04T05:05:38.071Z,4.20
2023-04-04T05:08:05.045Z,4.07
2023-04-04T05:10:34.098Z,4.33
2023-04-04T05:13:00.862Z,4.23
2023-04-04T05:15:29.335Z,4.00
2023-04-04T05:17:56.193Z,3.80
2023-04-04T05:20:23.452Z,4.60
2023-04-04T05:22:51.568Z,3.30
2023-04-04T05:25:18.612Z,3.90
2023-04-04T05:27:50.873Z,3.37
2023-04-04T05:30:20.157Z,3.90
2023-04-04T05:32:49.118Z,3.77
2023-04-04T05:35:16.309Z,3.97
2023-04-04T05:37:45.568Z,3.77
2023-04-04T05:40:12.461Z,4.63
2023-04-04T05:42:43.229Z,3.97
2023-04-04T05:45:12.954Z,3.77
2023-04-04T05:47:45.504Z,3.57
2023-04-04T05:50:12.338Z,3.80
2023-04-04T05:52:39.142Z,4.03
2023-04-04T05:55:08.562Z,3.70
2023-04-04T05:57:38.050Z,4.17
2023-04-04T06:00:06.104Z,4.57
2023-04-04T06:02:37.492Z,4.10
2023-04-04T06:05:04.622Z,4.53
2023-04-04T06:07:31.409Z,4.07
2023-04-04T06:09:58.181Z,3.73
2023-04-04T06:12:24.939Z,3.73
2023-04-04T06:14:54.093Z,5.23
2023-04-04T06:17:22.985Z,4.40
2023-04-04T06:19:49.869Z,4.70
2023-04-04T06:22:17.799Z,4.57
2023-04-04T06:24:44.568Z,4.30
2023-04-04T06:27:16.516Z,4.50
2023-04-04T06:29:45.708Z,4.47
2023-04-04T06:32:12.940Z,4.63
2023-04-04T06:34:39.709Z,4.07
2023-04-04T06:37:06.558Z,5.07
2023-04-04T06:39:34.438Z,4.40
2023-04-04T06:42:01.493Z,4.10
2023-04-04T06:44:28.320Z,4.63
2023-04-04T06:46:55.232Z,3.80
2023-04-04T06:49:22.200Z,4.17
2023-04-04T06:51:51.099Z,4.30
2023-04-04T06:54:20.098Z,4.27
2023-04-04T06:56:47.333Z,4.30
2023-04-04T06:59:16.774Z,4.30
2023-04-04T07:01:43.698Z,4.50
2023-04-04T07:04:10.639Z,4.50
2023-04-04T07:06:37.420Z,5.03
2023-04-04T07:09:05.906Z,4.20
2023-04-04T07:11:34.173Z,5.30
2023-04-04T07:14:00.960Z,4.53
2023-04-04T07:16:31.639Z,4.40
2023-04-04T07:18:58.476Z,3.50
2023-04-04T07:21:27.383Z,4.40
2023-04-04T07:23:56.238Z,4.07
2023-04-04T07:26:25.164Z,4.40
2023-04-04T07:28:52.929Z,4.10
2023-04-04T07:31:19.830Z,4.63
2023-04-04T07:33:46.622Z,4.40
2023-04-04T07:36:13.421Z,4.60
2023-04-04T07:38:40.246Z,4.13
2023-04-04T07:41:07.054Z,3.60
2023-04-04T07:43:38.582Z,4.40
2023-04-04T07:46:05.380Z,4.13
2023-04-04T07:48:32.142Z,4.20
2023-04-04T07:51:00.271Z,4.37
2023-04-04T07:53:28.401Z,3.97
2023-04-04T07:55:57.239Z,3.93
2023-04-04T07:58:25.059Z,4.20
2023-04-04T08:00:54.000Z,3.73
2023-04-04T08:03:21.230Z,3.93
2023-04-04T08:05:48.141Z,3.73
2023-04-04T08:08:15.003Z,3.80
2023-04-04T08:10:44.008Z,3.67
2023-04-04T08:13:10.907Z,3.53
2023-04-04T08:15:40.320Z,3.50
2023-04-04T08:18:12.255Z,3.00
2023-04-04T08:20:41.982Z,3.43
2023-04-04T08:23:09.503Z,3.43
2023-04-04T08:25:36.389Z,3.00
2023-04-04T08:28:06.046Z,3.10
2023-04-04T08:30:35.249Z,3.13
2023-04-04T08:33:03.882Z,3.40
2023-04-04T08:35:34.453Z,3.00
2023-04-04T08:38:02.763Z,3.53
2023-04-04T08:40:32.650Z,3.50
2023-04-04T08:43:00.091Z,3.73
2023-04-04T08:45:30.762Z,3.50
2023-04-04T08:48:00.370Z,3.60
2023-04-04T08:50:28.832Z,3.43
2023-04-04T08:52:56.780Z,3.70
2023-04-04T08:55:24.608Z,3.40
2023-04-04T08:57:51.501Z,3.23
2023-04-04T09:00:21.425Z,3.40
2023-04-04T09:02:48.385Z,3.23
2023-04-04T09:05:17.626Z,3.47
2023-04-04T09:07:44.487Z,3.03
2023-04-04T09:10:13.941Z,3.23
2023-04-04T09:12:45.582Z,2.87
2023-04-04T09:15:13.677Z,3.03
2023-04-04T09:17:40.749Z,2.80
2023-04-04T09:20:40.913Z,2.97
2023-04-04T09:23:15.379Z,2.90
2023-04-04T09:26:04.346Z,2.83
2023-04-04T09:28:34.236Z,2.70
2023-04-04T09:31:05.615Z,3.03
2023-04-04T09:33:35.651Z,3.83
2023-04-04T09:36:03.958Z,2.90
2023-04-04T09:38:31.549Z,2.57
2023-04-04T09:41:01.180Z,2.53
2023-04-04T09:43:31.009Z,2.53
2023-04-04T09:45:58.222Z,2.17
2023-04-04T09:48:33.041Z,2.23
2023-04-04T09:51:00.113Z,2.40
2023-04-04T09:53:27.832Z,2.30
2023-04-04T09:55:55.922Z,2.30
2023-04-04T09:58:29.325Z,2.10
2023-04-04T10:01:02.998Z,2.23
2023-04-04T10:03:30.600Z,2.03
2023-04-04T10:06:00.744Z,2.53
2023-04-04T10:08:28.842Z,2.10
2023-04-04T10:13:36.246Z,2.43
2023-04-04T10:16:04.199Z,2.10
2023-04-04T10:18:32.233Z,1.70
2023-04-04T10:21:12.225Z,1.57
2023-04-04T10:23:45.593Z,1.53
2023-04-04T10:26:12.837Z,1.50
2023-04-04T10:28:45.515Z,1.90
2023-04-04T10:31:28.409Z,2.00
2023-04-04T10:34:18.055Z,1.47
2023-04-04T10:36:48.336Z,1.80
2023-04-04T10:39:27.525Z,1.80
2023-04-04T10:41:54.378Z,2.10
2023-04-04T10:44:36.399Z,1.60
2023-04-04T10:47:15.092Z,2.00
2023-04-04T10:49:50.635Z,1.50
2023-04-04T10:52:21.765Z,1.70
2023-04-04T10:54:51.071Z,2.00
2023-04-04T10:57:18.021Z,1.70
2023-04-04T11:00:13.081Z,1.60
2023-04-04T11:02:46.205Z,1.80
2023-04-04T11:05:31.904Z,1.60
2023-04-04T11:08:08.761Z,1.70
2023-04-04T11:10:37.189Z,1.47
2023-04-04T11:13:13.163Z,1.70
2023-04-04T11:16:05.322Z,1.60
2023-04-04T11:18:34.064Z,1.93
2023-04-04T11:21:07.575Z,2.23
2023-04-04T11:23:49.351Z,1.73
2023-04-04T11:26:36.605Z,1.80
2023-04-04T11:29:08.098Z,1.87
2023-04-04T11:31:45.464Z,1.90
2023-04-04T11:34:13.159Z,1.60
2023-04-04T11:36:40.773Z,1.80
2023-04-04T11:39:14.899Z,1.30
2023-04-04T11:41:58.844Z,1.60
2023-04-04T11:44:29.433Z,1.50
2023-04-04T11:47:10.992Z,1.80
2023-04-04T11:49:49.233Z,1.80
2023-04-04T11:52:19.054Z,1.90
2023-04-04T11:54:47.733Z,1.93
2023-04-04T11:57:15.457Z,1.83
2023-04-04T11:59:43.820Z,2.47
2023-04-04T12:02:10.722Z,2.10
2023-04-04T12:04:44.588Z,1.93
2023-04-04T12:07:12.618Z,2.10
2023-04-04T12:09:42.406Z,2.00
2023-04-04T12:12:21.036Z,2.70
2023-04-04T12:14:48.069Z,2.00
2023-04-04T12:17:18.082Z,1.60
2023-04-04T12:19:44.933Z,1.70
2023-04-04T12:22:14.145Z,1.90
2023-04-04T12:24:44.003Z,1.67
2023-04-04T12:27:15.536Z,2.17
2023-04-04T12:29:45.621Z,1.97
2023-04-04T12:32:15.359Z,2.07
2023-04-04T12:34:46.988Z,2.03
2023-04-04T12:37:19.184Z,1.83
2023-04-04T12:39:49.448Z,2.17
2023-04-04T12:42:25.464Z,2.20
2023-04-04T12:44:52.894Z,2.03
2023-04-04T12:47:24.315Z,2.10
2023-04-04T12:49:54.826Z,2.10
2023-04-04T12:52:26.327Z,2.27
2023-04-04T12:55:08.357Z,2.10
2023-04-04T12:57:36.042Z,1.97
2023-04-04T13:00:04.523Z,2.00
2023-04-04T13:02:33.861Z,2.27
2023-04-04T13:05:01.051Z,2.20
2023-04-04T13:07:29.269Z,2.37
2023-04-04T13:10:01.282Z,2.20
2023-04-04T13:12:33.749Z,1.90
2023-04-04T13:15:00.921Z,2.27
2023-04-04T13:17:44.201Z,2.07
2023-04-04T13:20:14.250Z,2.20
2023-04-04T13:22:43.560Z,2.13
2023-04-04T13:25:13.549Z,2.20
2023-04-04T13:27:45.046Z,2.27
2023-04-04T13:30:12.104Z,2.33
2023-04-04T13:32:38.968Z,2.43
2023-04-04T13:35:06.542Z,2.70
2023-04-04T13:37:33.379Z,2.57
2023-04-04T13:40:02.581Z,2.20
2023-04-04T13:42:31.655Z,2.03
2023-04-04T13:44:58.533Z,3.23
2023-04-04T13:47:28.645Z,2.53
2023-04-04T13:49:55.608Z,2.17
2023-04-04T13:52:22.455Z,2.30
2023-04-04T13:54:49.757Z,2.60
2023-04-04T13:57:18.737Z,2.90
2023-04-04T13:59:45.677Z,2.60
2023-04-04T14:02:12.546Z,2.20
2023-04-04T14:04:42.261Z,2.37
2023-04-04T14:07:12.372Z,2.50
2023-04-04T14:09:39.282Z,2.10
2023-04-04T14:12:06.195Z,2.00
2023-04-04T14:14:35.486Z,2.13
2023-04-04T14:17:03.510Z,2.27
2023-04-04T14:19:34.985Z,2.00
2023-04-04T14:22:02.223Z,2.27
2023-04-04T14:24:29.012Z,2.40
2023-04-04T14:26:55.860Z,2.33
2023-04-04T14:29:25.040Z,2.10
2023-04-04T14:31:51.873Z,2.30
2023-04-04T14:34:26.550Z,2.20
2023-04-04T14:36:56.035Z,2.13
2023-04-04T14:39:25.252Z,2.17
2023-04-04T14:41:52.232Z,2.20
2023-04-04T14:44:21.995Z,1.83
2023-04-04T14:46:51.883Z,2.13
2023-04-04T14:49:18.912Z,2.07
2023-04-04T14:51:47.806Z,2.00
2023-04-04T14:54:17.329Z,2.10
2023-04-04T14:56:44.944Z,2.20
2023-04-04T14:59:14.212Z,2.07
2023-04-04T15:01:41.521Z,2.33
2023-04-04T15:04:09.271Z,2.27
2023-04-04T15:06:38.108Z,2.83
2023-04-04T15:09:08.670Z,2.60
2023-04-04T15:11:35.983Z,2.20
2023-04-04T15:14:03.092Z,2.43
2023-04-04T15:16:35.921Z,2.40
2023-04-04T15:19:04.996Z,2.50
2023-04-04T15:21:31.901Z,2.47
2023-04-04T15:24:01.051Z,2.57
2023-04-04T15:26:27.856Z,2.60
2023-04-04T15:28:54.633Z,2.67
2023-04-04T15:31:21.453Z,2.53
2023-04-04T15:33:48.559Z,2.40
2023-04-04T15:36:22.399Z,2.60
2023-04-04T15:38:52.157Z,2.40
2023-04-04T15:41:18.879Z,2.20
2023-04-04T15:43:46.317Z,2.47
2023-04-04T15:46:13.329Z,2.50
2023-04-04T15:48:40.229Z,2.50
2023-04-04T15:51:06.980Z,2.40
2023-04-04T15:53:36.420Z,2.70
2023-04-04T15:56:03.261Z,2.20
2023-04-04T15:58:30.098Z,2.63
2023-04-04T16:00:58.872Z,2.43
2023-04-04T16:03:26.029Z,2.60
2023-04-04T16:05:52.860Z,2.90
2023-04-04T16:08:19.702Z,2.97
2023-04-04T16:10:46.427Z,2.70
2023-04-04T16:13:13.329Z,2.60
2023-04-04T16:15:42.516Z,2.70
2023-04-04T16:18:09.404Z,2.90
2023-04-04T16:20:36.222Z,2.90
2023-04-04T16:23:03.064Z,3.20
2023-04-04T16:25:31.993Z,2.70
2023-04-04T16:28:01.022Z,2.80
2023-04-04T16:30:29.970Z,2.70
2023-04-04T16:32:56.765Z,2.53
2023-04-04T16:35:23.728Z,2.30
2023-04-04T16:37:53.048Z,2.43
2023-04-04T16:40:22.301Z,2.70
2023-04-04T16:42:49.059Z,2.80
2023-04-04T16:45:15.840Z,2.53
2023-04-04T16:47:42.628Z,2.50
2023-04-04T16:50:10.116Z,2.60
2023-04-04T16:52:39.075Z,3.00
2023-04-04T16:55:06.590Z,3.30
2023-04-04T16:57:33.316Z,2.77
2023-04-04T17:00:05.775Z,2.63
2023-04-04T17:02:34.831Z,2.90
2023-04-04T17:05:06.590Z,2.80
2023-04-04T17:07:35.604Z,2.77
2023-04-04T17:10:02.723Z,2.77
2023-04-04T17:12:29.761Z,2.73
2023-04-04T17:14:56.614Z,3.03
2023-04-04T17:17:23.418Z,3.47
2023-04-04T17:19:50.195Z,3.10
2023-04-04T17:22:19.106Z,2.93
2023-04-04T17:24:46.198Z,2.90
2023-04-04T17:27:13.108Z,2.90
2023-04-04T17:29:42.138Z,3.13
2023-04-04T17:32:11.849Z,2.90
2023-04-04T17:34:42.173Z,3.40
2023-04-04T17:37:13.298Z,3.00
2023-04-04T17:39:40.098Z,2.93
2023-04-04T17:42:09.004Z,3.03
2023-04-04T17:44:36.073Z,3.37
2023-04-04T17:47:02.855Z,3.43
2023-04-04T17:49:29.606Z,3.90
2023-04-04T17:51:56.624Z,3.67
2023-04-04T17:54:23.642Z,3.50
2023-04-04T17:56:50.494Z,3.83
2023-04-04T17:59:17.763Z,4.50
2023-04-04T18:01:47.237Z,4.27
2023-04-04T18:04:14.137Z,3.97
2023-04-04T18:06:43.395Z,3.27
2023-04-04T18:09:12.694Z,3.77
2023-04-04T18:11:44.162Z,3.10
2023-04-04T18:14:13.247Z,2.90
2023-04-04T18:16:42.592Z,3.20
2023-04-04T18:19:09.951Z,2.97
2023-04-04T18:21:37.661Z,2.87
2023-04-04T18:24:07.513Z,3.43
2023-04-04T18:26:39.033Z,3.23
2023-04-04T18:29:08.387Z,3.33
2023-04-04T18:31:35.323Z,3.67
2023-04-04T18:34:07.313Z,3.70
2023-04-04T18:36:36.565Z,4.20
2023-04-04T18:39:03.745Z,3.13
2023-04-04T18:41:32.848Z,2.90
2023-04-04T18:43:59.619Z,2.20
2023-04-04T18:46:28.975Z,2.80
2023-04-04T18:48:58.010Z,2.70
2023-04-04T18:51:24.821Z,1.90
2023-04-04T18:53:53.766Z,2.50
2023-04-04T18:56:21.686Z,2.10
2023-04-04T18:58:49.167Z,2.70
2023-04-04T19:01:18.601Z,2.73
2023-04-04T19:03:51.822Z,2.47
2023-04-04T19:06:18.672Z,3.57
2023-04-04T19:08:47.758Z,2.77
2023-04-04T19:11:16.914Z,2.83
2023-04-04T19:13:44.810Z,3.27
2023-04-04T19:16:14.076Z,3.33
2023-04-04T19:18:41.078Z,3.63
2023-04-04T19:21:09.513Z,3.30
2023-04-04T19:23:37.723Z,3.73
2023-04-04T19:26:04.499Z,3.83
2023-04-04T19:28:31.507Z,3.30
2023-04-04T19:30:58.290Z,3.23
2023-04-04T19:33:25.908Z,4.10
2023-04-04T19:35:57.170Z,3.00
2023-04-04T19:38:33.557Z,3.40
2023-04-04T19:41:24.043Z,2.33
2023-04-04T19:43:50.976Z,2.33
2023-04-04T19:46:32.989Z,2.37
2023-04-04T19:49:01.860Z,2.53
2023-04-04T19:51:31.977Z,2.73
2023-04-04T19:53:59.390Z,2.87
2023-04-04T19:56:28.543Z,2.60
2023-04-04T19:58:57.833Z,2.50
2023-04-04T20:01:27.393Z,2.50
2023-04-04T20:03:54.872Z,2.40
2023-04-04T20:06:27.973Z,2.40
2023-04-04T20:09:01.146Z,2.67
2023-04-04T20:11:35.020Z,2.83
2023-04-04T20:14:11.300Z,2.50
2023-04-04T20:16:38.196Z,2.77
2023-04-04T20:19:06.736Z,2.67
2023-04-04T20:21:36.966Z,3.20
2023-04-04T20:24:06.089Z,3.37
2023-04-04T20:26:38.684Z,3.40
2023-04-04T20:29:08.346Z,3.53
2023-04-04T20:31:41.933Z,3.70
2023-04-04T20:34:46.396Z,3.77
2023-04-04T20:37:19.842Z,3.70
2023-04-04T20:40:00.152Z,4.63
2023-04-04T20:42:30.419Z,4.30
2023-04-04T20:45:11.073Z,6.00
2023-04-04T20:47:46.643Z,6.20
2023-04-04T20:50:18.474Z,6.50
2023-04-04T20:52:58.936Z,6.57
2023-04-04T20:55:27.570Z,6.57
2023-04-04T20:57:59.128Z,6.93
2023-04-04T21:00:26.900Z,7.03
2023-04-04T21:02:53.728Z,7.30
2023-04-04T21:05:27.433Z,5.50
2023-04-04T21:07:54.198Z,6.40
2023-04-04T21:10:25.703Z,5.40
2023-04-04T21:12:57.577Z,6.60
2023-04-04T21:15:33.667Z,5.37
2023-04-04T21:18:06.680Z,5.73
2023-04-04T21:21:01.289Z,5.43
2023-04-04T21:23:29.984Z,4.50
2023-04-04T21:26:00.397Z,5.40
2023-04-04T21:28:36.651Z,4.90
2023-04-04T21:31:14.130Z,5.00
2023-04-04T21:33:48.795Z,5.03
2023-04-04T21:36:27.317Z,4.53
2023-04-04T21:39:01.685Z,4.27
2023-04-04T21:41:34.260Z,4.33
2023-04-04T21:44:02.286Z,4.33
2023-04-04T21:46:33.355Z,4.07
2023-04-04T21:49:00.613Z,4.13
2023-04-04T21:51:29.929Z,4.10
2023-04-04T21:53:59.327Z,3.50
2023-04-04T21:56:31.498Z,3.73
2023-04-04T21:58:59.318Z,4.00
2023-04-04T22:01:26.453Z,3.90
2023-04-04T22:03:53.578Z,3.90
2023-04-04T22:06:22.592Z,3.97
2023-04-04T22:08:49.377Z,4.13
2023-04-04T22:11:21.605Z,3.80
2023-04-04T22:13:49.297Z,3.80
2023-04-04T22:16:17.225Z,4.50
2023-04-04T22:18:52.076Z,4.13
2023-04-04T22:21:25.680Z,4.10
2023-04-04T22:24:00.611Z,4.43
2023-04-04T22:26:33.807Z,4.60
2023-04-04T22:29:08.531Z,4.33
2023-04-04T22:31:37.554Z,4.77
2023-04-04T22:34:06.901Z,4.40
2023-04-04T22:36:34.600Z,4.30
2023-04-04T22:39:03.723Z,4.27
2023-04-04T22:41:30.507Z,4.33
2023-04-04T22:43:57.759Z,4.10
2023-04-04T22:46:26.051Z,4.30
2023-04-04T22:49:04.851Z,4.30
2023-04-04T22:51:35.182Z,3.90
2023-04-04T22:54:02.751Z,5.93
2023-04-04T22:56:29.798Z,5.37
2023-04-04T22:58:56.709Z,4.87
2023-04-04T23:01:23.613Z,4.87
2023-04-04T23:03:50.534Z,4.80
2023-04-04T23:06:19.959Z,5.23
2023-04-04T23:08:49.218Z,5.83
2023-04-04T23:11:16.174Z,6.37
2023-04-04T23:13:43.656Z,6.40
2023-04-04T23:16:10.542Z,6.73
2023-04-04T23:18:37.357Z,7.03
2023-04-04T23:21:07.345Z,7.13
2023-04-04T23:23:38.693Z,6.93
2023-04-04T23:26:05.516Z,6.87
2023-04-04T23:28:32.233Z,6.27
2023-04-04T23:31:02.489Z,6.50
2023-04-04T23:33:29.671Z,6.20
2023-04-04T23:35:56.875Z,5.73
2023-04-04T23:38:26.371Z,6.30
2023-04-04T23:40:55.581Z,6.00
2023-04-04T23:43:22.420Z,6.13
2023-04-04T23:45:49.193Z,6.50
2023-04-04T23:48:15.999Z,6.07
2023-04-04T23:50:44.910Z,5.60
2023-04-04T23:53:11.900Z,6.57
2023-04-04T23:55:38.679Z,6.00
2023-04-04T23:58:07.698Z,6.20
